createdAt,value
2023-04-22T00:00:28.991Z,13.10
2023-04-22T00:05:23.948Z,12.70
2023-04-22T00:07:51.129Z,12.90
2023-04-22T00:12:45.667Z,12.90
2023-04-22T00:15:12.961Z,12.70
2023-04-22T00:20:10.821Z,12.80
2023-04-22T00:22:37.871Z,12.90
2023-04-22T00:25:05.547Z,12.90
2023-04-22T00:27:32.752Z,12.70
2023-04-22T00:29:59.888Z,12.80
2023-04-22T00:37:22.194Z,12.70
2023-04-22T00:42:17.577Z,12.80
2023-04-22T00:44:47.265Z,12.80
2023-04-22T00:49:42.335Z,12.70
2023-04-22T00:52:09.311Z,12.80
2023-04-22T00:59:31.588Z,12.50
2023-04-22T01:04:26.220Z,12.50
2023-04-22T01:06:56.413Z,12.90
2023-04-22T01:09:23.441Z,12.60
2023-04-22T01:11:50.695Z,12.50
2023-04-22T01:14:18.066Z,12.40
2023-04-22T01:16:45.918Z,12.40
2023-04-22T01:21:41.605Z,12.30
2023-04-22T01:26:37.295Z,12.20
2023-04-22T01:29:05.474Z,12.10
2023-04-22T01:31:33.336Z,12.40
2023-04-22T01:38:56.295Z,12.30
2023-04-22T01:41:23.416Z,12.40
2023-04-22T01:43:53.349Z,12.40
2023-04-22T01:46:20.507Z,12.40
2023-04-22T01:48:51.425Z,12.50
2023-04-22T01:51:20.816Z,12.30
2023-04-22T01:53:48.758Z,12.20
2023-04-22T01:56:16.282Z,12.10
2023-04-22T01:58:44.048Z,12.00
2023-04-22T02:01:12.639Z,12.10
2023-04-22T02:03:39.657Z,14.10
2023-04-22T02:06:07.699Z,12.10
2023-04-22T02:08:34.806Z,12.20
2023-04-22T02:11:02.165Z,12.00
2023-04-22T02:13:40.951Z,12.00
2023-04-22T02:16:08.699Z,12.30
2023-04-22T02:18:35.965Z,12.50
2023-04-22T02:21:05.433Z,12.00
2023-04-22T02:23:32.712Z,11.90
2023-04-22T02:25:59.681Z,12.00
2023-04-22T02:28:26.750Z,11.90
2023-04-22T02:30:53.757Z,12.00
2023-04-22T02:33:23.328Z,11.90
2023-04-22T02:35:51.812Z,11.80
2023-04-22T02:38:19.923Z,11.90
2023-04-22T02:40:47.057Z,11.90
2023-04-22T02:43:14.425Z,12.30
2023-04-22T02:48:09.262Z,11.80
2023-04-22T02:50:36.583Z,11.70
2023-04-22T02:53:03.664Z,12.20
2023-04-22T02:55:30.622Z,12.00
2023-04-22T02:57:57.684Z,11.80
2023-04-22T03:00:24.761Z,11.90
2023-04-22T03:02:52.124Z,11.90
2023-04-22T03:07:50.409Z,11.90
2023-04-22T03:10:17.592Z,11.90
2023-04-22T03:15:12.977Z,11.80
2023-04-22T03:22:38.954Z,14.00
2023-04-22T03:27:35.786Z,11.70
2023-04-22T03:30:04.658Z,11.60
2023-04-22T03:32:31.721Z,11.70
2023-04-22T03:35:16.609Z,11.70
2023-04-22T03:37:46.233Z,11.60
2023-04-22T03:42:45.170Z,11.50
2023-04-22T03:45:12.305Z,11.60
2023-04-22T03:47:44.688Z,11.50
2023-04-22T03:50:21.311Z,11.60
2023-04-22T03:52:50.396Z,11.60
2023-04-22T03:57:50.813Z,11.90
2023-04-22T04:00:17.952Z,11.60
2023-04-22T04:02:51.987Z,11.50
2023-04-22T04:05:24.599Z,11.40
2023-04-22T04:07:51.776Z,11.80
2023-04-22T04:10:18.798Z,11.40
2023-04-22T04:15:13.514Z,11.40
2023-04-22T04:22:37.648Z,11.40
2023-04-22T04:25:06.894Z,11.40
2023-04-22T04:30:07.693Z,11.50
2023-04-22T04:32:43.017Z,11.50
2023-04-22T04:37:44.603Z,11.40
2023-04-22T04:40:14.805Z,11.30
2023-04-22T04:42:47.984Z,11.40
2023-04-22T04:45:22.422Z,11.30
2023-04-22T04:57:52.033Z,11.30
2023-04-22T05:00:19.611Z,11.20
2023-04-22T05:02:47.161Z,11.20
2023-04-22T05:05:14.743Z,11.10
2023-04-22T05:07:43.716Z,11.30
2023-04-22T05:10:12.541Z,11.00
2023-04-22T05:12:40.915Z,11.10
2023-04-22T05:15:11.361Z,11.10
2023-04-22T05:20:07.822Z,11.30
2023-04-22T05:22:38.626Z,11.20
2023-04-22T05:25:06.211Z,11.20
2023-04-22T05:30:02.595Z,11.20
2023-04-22T05:32:31.971Z,11.10
2023-04-22T05:34:59.062Z,11.30
2023-04-22T05:39:53.512Z,11.10
2023-04-22T05:42:21.299Z,11.20
2023-04-22T05:44:49.260Z,11.20
2023-04-22T05:47:16.933Z,11.20
2023-04-22T05:49:44.258Z,11.10
2023-04-22T05:52:20.798Z,11.00
2023-04-22T05:55:10.377Z,11.10
2023-04-22T05:57:37.974Z,11.00
2023-04-22T06:00:10.587Z,11.00
2023-04-22T06:02:40.691Z,11.10
2023-04-22T06:05:08.810Z,10.90
2023-04-22T06:07:36.258Z,11.40
2023-04-22T06:10:07.027Z,11.30
2023-04-22T06:15:02.227Z,11.20
2023-04-22T06:17:29.270Z,11.10
2023-04-22T06:19:57.000Z,11.20
2023-04-22T06:22:23.998Z,11.00
2023-04-22T06:24:51.053Z,11.20
2023-04-22T06:27:18.028Z,11.10
2023-04-22T06:29:45.311Z,11.30
2023-04-22T06:32:13.151Z,10.90
2023-04-22T06:34:42.311Z,11.20
2023-04-22T06:37:09.532Z,11.50
2023-04-22T06:39:36.795Z,11.40
2023-04-22T06:42:13.049Z,11.40
2023-04-22T06:45:12.894Z,11.50
2023-04-22T06:47:59.077Z,11.50
2023-04-22T06:50:36.516Z,11.40
2023-04-22T06:55:31.029Z,11.70
2023-04-22T07:00:26.855Z,11.70
2023-04-22T07:02:54.109Z,11.90
2023-04-22T07:07:49.367Z,12.30
2023-04-22T07:13:16.615Z,12.70
2023-04-22T07:20:40.800Z,12.30
2023-04-22T07:23:07.942Z,11.80
2023-04-22T07:28:02.682Z,12.30
2023-04-22T07:35:25.018Z,12.40
2023-04-22T07:42:47.330Z,12.60
2023-04-22T07:47:42.260Z,12.70
2023-04-22T07:50:09.787Z,12.90
2023-04-22T07:55:04.930Z,13.00
2023-04-22T08:00:03.645Z,13.10
2023-04-22T08:05:07.569Z,13.20
2023-04-22T08:07:34.616Z,13.20
2023-04-22T08:12:29.098Z,13.40
2023-04-22T08:14:57.967Z,13.50
2023-04-22T08:17:25.191Z,13.40
2023-04-22T08:24:47.166Z,13.90
2023-04-22T08:27:14.287Z,14.20
2023-04-22T08:32:09.566Z,14.10
2023-04-22T08:34:37.210Z,14.50
2023-04-22T08:39:31.693Z,14.60
2023-04-22T08:44:26.923Z,14.60
2023-04-22T08:49:25.179Z,14.60
2023-04-22T08:51:53.506Z,14.80
2023-04-22T08:56:51.794Z,14.80
2023-04-22T08:59:20.707Z,15.20
2023-04-22T09:01:53.531Z,15.30
2023-04-22T09:06:48.349Z,14.90
2023-04-22T09:11:42.943Z,15.30
2023-04-22T09:14:10.169Z,15.60
2023-04-22T09:16:47.940Z,15.80
2023-04-22T09:19:15.753Z,15.80
2023-04-22T09:21:43.240Z,16.00
2023-04-22T09:24:12.162Z,16.10
2023-04-22T09:26:43.950Z,16.10
2023-04-22T09:29:16.350Z,15.90
2023-04-22T09:31:48.829Z,16.10
2023-04-22T09:34:15.979Z,16.30
2023-04-22T09:36:44.056Z,16.40
2023-04-22T09:41:41.142Z,16.10
2023-04-22T09:44:16.722Z,16.30
2023-04-22T09:46:44.841Z,16.00
2023-04-22T09:49:12.261Z,16.10
2023-04-22T09:51:42.590Z,16.40
2023-04-22T09:56:52.508Z,16.80
2023-04-22T09:59:23.718Z,16.80
2023-04-22T10:02:07.253Z,16.90
2023-04-22T10:04:34.675Z,16.90
2023-04-22T10:11:59.623Z,17.40
2023-04-22T10:14:27.078Z,17.70
2023-04-22T10:17:00.309Z,17.60
2023-04-22T10:21:58.560Z,17.80
2023-04-22T10:24:35.105Z,18.10
2023-04-22T10:27:08.592Z,18.20
2023-04-22T10:29:43.396Z,18.20
2023-04-22T10:32:11.063Z,18.30
2023-04-22T10:37:11.875Z,17.60
2023-04-22T10:39:42.818Z,18.20
2023-04-22T10:42:17.518Z,18.60
2023-04-22T10:45:01.810Z,18.30
2023-04-22T10:47:39.054Z,17.90
2023-04-22T10:50:26.510Z,17.50
2023-04-22T10:52:58.372Z,18.70
2023-04-22T10:55:26.294Z,18.50
2023-04-22T10:57:54.278Z,18.60
2023-04-22T11:00:45.671Z,18.80
2023-04-22T11:03:26.041Z,18.60
2023-04-22T11:06:17.941Z,18.40
2023-04-22T11:08:50.484Z,18.80
2023-04-22T11:11:19.150Z,19.00
2023-04-22T11:13:50.655Z,19.20
2023-04-22T11:16:19.826Z,19.00
2023-04-22T11:18:48.236Z,20.70
2023-04-22T11:21:15.622Z,20.90
2023-04-22T11:23:54.300Z,21.40
2023-04-22T11:26:35.215Z,22.10
2023-04-22T11:29:02.424Z,22.10
2023-04-22T11:31:29.662Z,22.60
2023-04-22T11:34:00.453Z,23.20
2023-04-22T11:36:27.779Z,23.00
2023-04-22T11:38:56.395Z,22.60
2023-04-22T11:46:30.420Z,22.80
2023-04-22T11:49:16.715Z,22.80
2023-04-22T11:51:55.821Z,23.30
2023-04-22T11:54:37.864Z,21.60
2023-04-22T11:57:15.508Z,23.40
2023-04-22T11:59:43.025Z,22.30
2023-04-22T12:04:42.192Z,23.00
2023-04-22T12:07:09.266Z,23.50
2023-04-22T12:09:36.373Z,24.30
2023-04-22T12:12:04.820Z,23.00
2023-04-22T12:14:35.862Z,21.20
2023-04-22T12:17:09.693Z,21.30
2023-04-22T12:19:37.918Z,19.60
2023-04-22T12:22:05.107Z,20.80
2023-04-22T12:27:00.051Z,21.30
2023-04-22T12:29:31.000Z,21.80
2023-04-22T12:36:52.989Z,21.70
2023-04-22T12:41:50.943Z,21.20
2023-04-22T12:44:17.916Z,21.00
2023-04-22T12:46:45.267Z,21.20
2023-04-22T12:49:14.441Z,21.60
2023-04-22T12:54:10.656Z,21.10
2023-04-22T12:56:37.670Z,21.50
2023-04-22T13:01:33.756Z,20.60
2023-04-22T13:04:01.935Z,21.60
2023-04-22T13:08:56.486Z,21.50
2023-04-22T13:11:24.617Z,21.30
2023-04-22T13:21:15.272Z,21.30
2023-04-22T13:26:10.616Z,20.40
2023-04-22T13:31:05.298Z,21.00
2023-04-22T13:33:32.293Z,20.70
2023-04-22T13:35:59.358Z,21.10
2023-04-22T13:45:49.252Z,21.50
2023-04-22T13:48:16.294Z,20.50
2023-04-22T13:53:11.852Z,21.40
2023-04-22T13:55:39.999Z,20.40
2023-04-22T13:58:08.317Z,19.80
2023-04-22T14:03:03.338Z,19.80
2023-04-22T14:05:30.875Z,20.00
2023-04-22T14:07:59.202Z,20.20
2023-04-22T14:10:28.381Z,19.80
2023-04-22T14:12:55.844Z,20.20
2023-04-22T14:15:22.845Z,20.40
2023-04-22T14:17:49.975Z,20.40
2023-04-22T14:20:19.353Z,20.20
2023-04-22T14:27:41.580Z,21.60
2023-04-22T14:30:09.238Z,20.20
2023-04-22T14:35:04.772Z,21.40
2023-04-22T14:37:32.235Z,20.10
2023-04-22T14:39:59.256Z,20.20
2023-04-22T14:42:26.364Z,20.30
2023-04-22T14:44:53.636Z,20.30
2023-04-22T14:47:20.577Z,20.40
2023-04-22T14:49:47.610Z,20.50
2023-04-22T14:54:42.161Z,20.40
2023-04-22T14:57:09.148Z,20.60
2023-04-22T14:59:36.425Z,20.80
2023-04-22T15:04:32.663Z,20.60
2023-04-22T15:07:00.090Z,20.30
2023-04-22T15:09:27.885Z,20.50
2023-04-22T15:11:56.576Z,18.50
2023-04-22T15:14:23.720Z,20.00
2023-04-22T15:16:50.730Z,19.90
2023-04-22T15:19:17.669Z,19.80
2023-04-22T15:21:44.712Z,19.90
2023-04-22T15:26:40.572Z,19.60
2023-04-22T15:29:07.794Z,19.40
2023-04-22T15:31:35.072Z,19.10
2023-04-22T15:34:02.031Z,19.20
2023-04-22T15:36:30.059Z,19.40
2023-04-22T15:38:57.095Z,19.70
2023-04-22T15:43:53.150Z,19.90
2023-04-22T15:46:20.785Z,20.00
2023-04-22T15:48:48.859Z,20.10
2023-04-22T15:51:17.110Z,20.10
2023-04-22T15:53:47.256Z,20.10
2023-04-22T15:56:15.361Z,19.80
2023-04-22T15:58:42.304Z,20.70
2023-04-22T16:03:48.326Z,19.90
2023-04-22T16:11:15.255Z,19.70
2023-04-22T16:13:42.526Z,20.20
2023-04-22T16:16:09.835Z,20.10
2023-04-22T16:18:37.656Z,19.30
2023-04-22T16:21:05.878Z,20.10
2023-04-22T16:23:34.500Z,20.20
2023-04-22T16:26:02.806Z,20.10
2023-04-22T16:28:29.853Z,20.00
2023-04-22T16:30:56.894Z,19.80
2023-04-22T16:33:25.128Z,19.70
2023-04-22T16:35:52.104Z,19.80
2023-04-22T16:38:19.131Z,21.00
2023-04-22T16:40:46.359Z,19.90
2023-04-22T16:43:13.282Z,19.70
2023-04-22T16:45:40.573Z,19.50
2023-04-22T16:48:07.595Z,19.80
2023-04-22T16:50:34.636Z,19.50
2023-04-22T16:53:01.810Z,19.60
2023-04-22T16:55:28.763Z,20.00
2023-04-22T16:57:56.052Z,19.60
2023-04-22T17:00:24.094Z,20.90
2023-04-22T17:05:18.719Z,19.40
2023-04-22T17:07:45.826Z,20.70
2023-04-22T17:10:12.760Z,19.50
2023-04-22T17:12:40.003Z,19.50
2023-04-22T17:15:08.223Z,19.60
2023-04-22T17:17:35.669Z,19.40
2023-04-22T17:20:02.748Z,19.80
2023-04-22T17:22:29.907Z,19.30
2023-04-22T17:24:58.760Z,19.10
2023-04-22T17:27:25.931Z,19.10
2023-04-22T17:29:53.197Z,19.30
2023-04-22T17:32:20.265Z,19.40
2023-04-22T17:34:50.397Z,19.40
2023-04-22T17:37:17.542Z,19.40
2023-04-22T17:39:44.517Z,19.80
2023-04-22T17:42:12.021Z,19.10
2023-04-22T17:44:39.371Z,18.90
2023-04-22T17:47:07.455Z,18.90
2023-04-22T17:49:34.728Z,20.60
2023-04-22T17:52:03.026Z,19.00
2023-04-22T17:54:30.088Z,19.00
2023-04-22T17:56:57.126Z,19.30
2023-04-22T17:59:27.194Z,19.10
2023-04-22T18:01:54.306Z,19.10
2023-04-22T18:04:21.558Z,19.10
2023-04-22T18:06:51.541Z,19.00
2023-04-22T18:09:18.642Z,19.00
2023-04-22T18:11:45.789Z,18.80
2023-04-22T18:14:12.718Z,18.60
2023-04-22T18:16:39.679Z,18.50
2023-04-22T18:19:06.934Z,18.50
2023-04-22T18:21:34.507Z,18.50
2023-04-22T18:24:02.644Z,18.00
2023-04-22T18:26:29.632Z,17.90
2023-04-22T18:28:56.643Z,18.30
2023-04-22T18:33:51.086Z,18.20
2023-04-22T18:36:18.602Z,18.40
2023-04-22T18:38:45.745Z,18.30
2023-04-22T18:41:13.608Z,18.10
2023-04-22T18:43:40.924Z,18.30
2023-04-22T18:48:35.622Z,18.40
2023-04-22T18:51:02.600Z,18.20
2023-04-22T18:53:29.623Z,18.30
2023-04-22T18:55:56.615Z,18.20
2023-04-22T18:58:24.513Z,18.20
2023-04-22T19:00:51.575Z,18.10
2023-04-22T19:05:46.862Z,17.90
2023-04-22T19:08:17.362Z,17.90
2023-04-22T19:13:22.244Z,17.60
2023-04-22T19:15:56.173Z,17.90
2023-04-22T19:18:23.158Z,17.60
2023-04-22T19:20:50.965Z,17.60
2023-04-22T19:23:18.175Z,17.70
2023-04-22T19:25:45.787Z,16.10
2023-04-22T19:28:13.124Z,17.30
2023-04-22T19:30:40.184Z,17.50
2023-04-22T19:33:07.443Z,17.10
2023-04-22T19:35:34.399Z,17.80
2023-04-22T19:38:01.408Z,17.20
2023-04-22T19:45:27.036Z,17.20
2023-04-22T19:47:54.303Z,17.30
2023-04-22T19:50:21.846Z,17.80
2023-04-22T19:52:50.920Z,17.90
2023-04-22T19:55:21.777Z,16.70
2023-04-22T19:57:52.558Z,16.70
2023-04-22T20:00:20.440Z,16.50
2023-04-22T20:02:47.859Z,16.70
2023-04-22T20:05:15.448Z,16.70
2023-04-22T20:07:44.434Z,16.70
2023-04-22T20:10:11.732Z,16.40
2023-04-22T20:12:38.744Z,16.80
2023-04-22T20:15:06.739Z,17.00
2023-04-22T20:17:38.450Z,16.80
2023-04-22T20:20:07.278Z,16.90
2023-04-22T20:22:34.991Z,16.90
2023-04-22T20:25:05.448Z,17.00
2023-04-22T20:27:34.427Z,18.20
2023-04-22T20:30:02.194Z,16.60
2023-04-22T20:32:29.613Z,16.90
2023-04-22T20:34:58.503Z,16.70
2023-04-22T20:37:27.128Z,16.40
2023-04-22T20:39:54.752Z,16.90
2023-04-22T20:42:22.035Z,16.80
2023-04-22T20:44:49.019Z,18.00
2023-04-22T20:47:16.471Z,16.70
2023-04-22T20:49:44.019Z,16.60
2023-04-22T20:52:12.357Z,15.70
2023-04-22T20:54:40.292Z,16.80
2023-04-22T20:57:08.174Z,15.10
2023-04-22T20:59:35.898Z,16.70
2023-04-22T21:02:06.618Z,16.60
2023-04-22T21:04:34.631Z,17.20
2023-04-22T21:07:07.182Z,16.60
2023-04-22T21:09:34.622Z,16.50
2023-04-22T21:12:02.492Z,16.40
2023-04-22T21:14:29.842Z,16.00
2023-04-22T21:17:35.857Z,16.40
2023-04-22T21:20:09.237Z,16.50
2023-04-22T21:22:37.793Z,16.60
2023-04-22T21:25:05.987Z,16.30
2023-04-22T21:27:33.117Z,16.40
2023-04-22T21:30:00.865Z,16.00
2023-04-22T21:32:29.404Z,15.70
2023-04-22T21:34:56.783Z,16.30
2023-04-22T21:37:24.397Z,16.40
2023-04-22T21:39:51.438Z,16.40
2023-04-22T21:42:18.494Z,16.20
2023-04-22T21:44:49.692Z,16.20
2023-04-22T21:47:17.128Z,16.00
2023-04-22T21:49:45.875Z,15.90
2023-04-22T21:52:12.813Z,15.90
2023-04-22T21:54:39.957Z,15.90
2023-04-22T21:57:07.105Z,15.90
2023-04-22T21:59:34.177Z,16.00
2023-04-22T22:04:28.854Z,16.00
2023-04-22T22:06:56.087Z,16.00
2023-04-22T22:09:23.034Z,16.00
2023-04-22T22:11:49.924Z,15.60
2023-04-22T22:19:11.621Z,17.00
2023-04-22T22:21:38.706Z,16.00
2023-04-22T22:24:06.057Z,15.90
2023-04-22T22:26:33.061Z,15.90
2023-04-22T22:28:59.987Z,16.00
2023-04-22T22:31:27.661Z,17.40
2023-04-22T22:33:55.265Z,15.90
2023-04-22T22:36:22.228Z,15.80
2023-04-22T22:38:49.236Z,15.90
2023-04-22T22:41:16.197Z,15.90
2023-04-22T22:46:10.771Z,15.80
2023-04-22T22:48:38.149Z,15.70
2023-04-22T22:51:05.135Z,15.80
2023-04-22T22:53:34.235Z,15.50
2023-04-22T22:56:01.167Z,16.10
2023-04-22T22:58:28.305Z,15.80
2023-04-22T23:00:55.358Z,16.00
2023-04-22T23:03:22.596Z,15.80
2023-04-22T23:05:49.702Z,15.70
2023-04-22T23:08:16.826Z,15.20
2023-04-22T23:10:43.864Z,15.40
2023-04-22T23:13:10.875Z,15.40
2023-04-22T23:15:37.950Z,16.30
2023-04-22T23:18:05.064Z,15.50
2023-04-22T23:20:32.765Z,15.90
2023-04-22T23:23:01.554Z,15.70
2023-04-22T23:27:56.691Z,15.50
2023-04-22T23:30:24.321Z,15.60
2023-04-22T23:32:52.115Z,15.40
2023-04-22T23:35:20.488Z,15.50
2023-04-22T23:40:18.086Z,15.60
2023-04-22T23:42:45.016Z,15.20
2023-04-22T23:45:12.377Z,15.50
2023-04-22T23:47:39.619Z,15.50
2023-04-22T23:50:07.514Z,15.40
2023-04-22T23:52:40.611Z,15.30
2023-04-22T23:55:13.846Z,15.30
2023-04-22T23:57:41.114Z,15.40
